Time;durP1;ratioP1;P1;durP2;ratioP2;P2;SDS_P1;SDS_P2;PMS_P1;PMS_P2;Temp;Humidity;BMP_temperature;BMP_pressure;BME280_temperature;BME280_humidity;BME280_pressure;Samples;Min_cycle;Max_cycle;Signal;HPM_P1;HPM_P2
2022/06/01 00:01:48;;;;;;;3.10;2.53;;;20.40;65.00;;;;;;5067797;28;45304;-65
2022/06/01 00:04:17;;;;;;;2.67;2.38;;;20.40;65.20;;;;;;5065662;28;45483;-66
2022/06/01 00:06:44;;;;;;;4.97;2.47;;;20.40;65.00;;;;;;5065877;28;45201;-65
2022/06/01 00:09:11;;;;;;;3.10;2.47;;;20.40;65.80;;;;;;5066426;28;45312;-65
2022/06/01 00:11:38;;;;;;;3.25;2.33;;;20.40;65.00;;;;;;5066869;28;45408;-65
2022/06/01 00:14:06;;;;;;;3.35;2.50;;;20.40;65.90;;;;;;5064749;28;45271;-65
2022/06/01 00:16:33;;;;;;;3.00;2.38;;;20.40;65.20;;;;;;5066910;28;45143;-65
2022/06/01 00:19:00;;;;;;;3.38;2.42;;;20.40;65.10;;;;;;5064555;28;45207;-65
2022/06/01 00:21:28;;;;;;;2.53;2.20;;;20.40;66.80;;;;;;5045860;28;46806;-65
2022/06/01 00:23:55;;;;;;;2.95;2.33;;;20.40;65.00;;;;;;5066991;28;47057;-65
2022/06/01 00:26:22;;;;;;;4.68;1.95;;;20.40;65.00;;;;;;5067329;28;45179;-65
2022/06/01 00:28:49;;;;;;;2.75;2.15;;;20.40;65.10;;;;;;5064545;28;45531;-65
2022/06/01 00:31:16;;;;;;;3.00;2.47;;;20.40;66.20;;;;;;5067006;28;45656;-65
2022/06/01 00:33:42;;;;;;;3.20;2.13;;;20.40;65.00;;;;;;5070212;28;47267;-65
2022/06/01 00:36:10;;;;;;;2.97;2.45;;;20.40;65.00;;;;;;5063526;28;45860;-65
2022/06/01 00:38:38;;;;;;;2.85;2.15;;;20.40;65.00;;;;;;5050744;28;45239;-65
2022/06/01 00:41:05;;;;;;;4.13;2.22;;;20.40;65.00;;;;;;5070293;28;45588;-65
2022/06/01 00:43:42;;;;;;;3.17;2.20;;;20.40;64.70;;;;;;5070442;28;45496;-65
2022/06/01 00:46:09;;;;;;;3.20;2.17;;;20.40;64.90;;;;;;5068496;28;45172;-65
2022/06/01 00:48:39;;;;;;;3.17;2.42;;;20.40;65.00;;;;;;5068708;28;45160;-65
2022/06/01 00:51:07;;;;;;;3.45;2.70;;;20.40;64.70;;;;;;5070407;28;45434;-65
2022/06/01 00:53:40;;;;;;;3.95;2.30;;;20.40;65.60;;;;;;5068173;28;47456;-65
2022/06/01 00:56:10;;;;;;;2.30;2.10;;;20.40;64.60;;;;;;5068935;28;45606;-65
2022/06/01 00:58:40;;;;;;;2.78;2.42;;;20.40;65.00;;;;;;5068056;28;45136;-65
2022/06/01 01:01:10;;;;;;;2.58;2.08;;;20.40;65.20;;;;;;5070454;28;45140;-65
2022/06/01 01:03:40;;;;;;;4.13;2.28;;;20.40;65.60;;;;;;5068557;28;46497;-65
2022/06/01 01:06:13;;;;;;;4.88;2.22;;;20.40;65.00;;;;;;5069069;28;45630;-66
2022/06/01 01:08:42;;;;;;;3.85;2.20;;;20.40;64.90;;;;;;5068853;28;45278;-65
2022/06/01 01:11:10;;;;;;;2.47;2.10;;;20.40;64.70;;;;;;5067821;28;45323;-65
2022/06/01 01:13:41;;;;;;;3.50;2.22;;;20.40;64.90;;;;;;5069729;28;47961;-65
2022/06/01 01:16:10;;;;;;;2.97;2.35;;;20.40;64.90;;;;;;5069475;28;45235;-66
2022/06/01 01:18:39;;;;;;;4.18;2.55;;;20.40;65.00;;;;;;5064840;28;45209;-65
2022/06/01 01:21:18;;;;;;;2.95;2.25;;;20.40;65.00;;;;;;5051591;28;45509;-65
2022/06/01 01:23:54;;;;;;;3.65;2.60;;;20.40;64.70;;;;;;5049454;28;45965;-65
2022/06/01 01:26:24;;;;;;;3.60;2.22;;;20.40;64.70;;;;;;5066958;28;45157;-65
2022/06/01 01:28:52;;;;;;;4.55;2.58;;;20.30;64.50;;;;;;5067258;28;45325;-65
2022/06/01 01:31:21;;;;;;;3.28;2.58;;;20.30;64.80;;;;;;5067989;28;45339;-65
2022/06/01 01:33:49;;;;;;;3.75;2.40;;;20.40;64.50;;;;;;5069462;28;46717;-65
2022/06/01 01:36:18;;;;;;;3.00;2.38;;;20.40;64.50;;;;;;5068378;28;45386;-65
2022/06/01 01:38:50;;;;;;;5.60;2.35;;;20.40;64.30;;;;;;5067538;28;45210;-65
2022/06/01 01:41:24;;;;;;;3.00;2.22;;;20.40;64.30;;;;;;5069115;28;45358;-65
2022/06/01 01:43:57;;;;;;;4.60;2.58;;;20.40;64.30;;;;;;5052454;28;46122;-65
2022/06/01 01:46:24;;;;;;;4.45;2.35;;;20.40;64.50;;;;;;5068929;28;45230;-65
2022/06/01 01:48:51;;;;;;;4.35;2.33;;;20.40;64.40;;;;;;5067494;28;45281;-66
2022/06/01 01:51:21;;;;;;;4.43;2.80;;;20.40;64.70;;;;;;5067624;28;45406;-65
2022/06/01 01:53:48;;;;;;;3.03;2.28;;;20.40;64.50;;;;;;5069032;28;48846;-65
2022/06/01 01:56:29;;;;;;;3.05;2.42;;;20.40;64.40;;;;;;5067747;28;45240;-65
2022/06/01 01:59:28;;;;;;;6.93;2.38;;;20.40;64.20;;;;;;5067211;28;45418;-65
2022/06/01 02:02:01;;;;;;;4.40;2.22;;;20.40;64.10;;;;;;5069884;28;45434;-65
2022/06/01 02:07:24;;;;;;;6.35;2.50;;;20.40;64.40;;;;;;5067651;28;45227;-65
2022/06/01 02:12:43;;;;;;;4.90;1.95;;;20.30;64.20;;;;;;5047454;28;45212;-66
2022/06/01 02:15:13;;;;;;;3.03;1.45;;;20.40;64.20;;;;;;5068367;28;48091;-65
2022/06/01 02:17:49;;;;;;;4.18;1.60;;;20.30;64.30;;;;;;5068170;28;45341;-65
2022/06/01 02:20:25;;;;;;;2.17;1.70;;;20.30;64.30;;;;;;5059601;28;45158;-65
2022/06/01 02:22:52;;;;;;;4.18;1.38;;;20.30;64.10;;;;;;5053856;28;45444;-65
2022/06/01 02:25:20;;;;;;;3.33;1.50;;;20.30;64.30;;;;;;5068210;28;48292;-65
2022/06/01 02:27:51;;;;;;;5.38;1.50;;;20.30;64.00;;;;;;5065659;28;45255;-65
2022/06/01 02:30:20;;;;;;;1.85;1.33;;;20.30;64.20;;;;;;5067810;28;45257;-65
2022/06/01 02:32:48;;;;;;;3.22;1.92;;;20.30;63.90;;;;;;5068470;28;45278;-65
2022/06/01 02:35:18;;;;;;;2.78;1.77;;;20.40;64.00;;;;;;5068000;28;46194;-65
2022/06/01 02:37:48;;;;;;;2.97;1.50;;;20.30;63.90;;;;;;5067395;28;45216;-65
2022/06/01 02:40:19;;;;;;;3.15;1.42;;;20.40;63.90;;;;;;5067127;28;45459;-65
2022/06/01 02:42:50;;;;;;;4.78;1.40;;;20.40;64.00;;;;;;5068610;28;45283;-65
2022/06/01 02:45:20;;;;;;;2.28;1.30;;;20.40;63.90;;;;;;5068160;28;48125;-65
2022/06/01 02:47:48;;;;;;;2.67;1.30;;;20.40;64.20;;;;;;5066298;28;45295;-65
2022/06/01 02:50:17;;;;;;;2.33;1.27;;;20.40;63.80;;;;;;5059737;28;45312;-65
2022/06/01 02:52:44;;;;;;;2.22;1.27;;;20.40;63.80;;;;;;5068805;28;45295;-65
2022/06/01 02:55:13;;;;;;;4.32;1.30;;;20.40;63.90;;;;;;5065482;28;45478;-65
2022/06/01 02:57:41;;;;;;;1.90;1.23;;;20.30;63.70;;;;;;5068479;28;45231;-65
2022/06/01 03:00:17;;;;;;;4.13;1.60;;;20.30;63.60;;;;;;5066212;28;45528;-65
2022/06/01 03:02:44;;;;;;;3.22;1.48;;;20.30;63.80;;;;;;5068096;28;45223;-65
2022/06/01 03:05:11;;;;;;;2.42;1.30;;;20.30;63.60;;;;;;5066855;28;48478;-65
2022/06/01 03:07:38;;;;;;;2.17;1.10;;;20.30;63.70;;;;;;5067719;28;45199;-65
2022/06/01 03:10:06;;;;;;;2.22;1.30;;;20.30;64.00;;;;;;5067247;28;45307;-65
2022/06/01 03:12:33;;;;;;;2.53;1.60;;;20.30;63.90;;;;;;5069145;28;45106;-65
2022/06/01 03:15:00;;;;;;;1.95;1.17;;;20.30;63.80;;;;;;5066021;28;47351;-66
2022/06/01 03:17:28;;;;;;;2.88;1.08;;;20.30;64.00;;;;;;5067178;28;45265;-65
2022/06/01 03:19:55;;;;;;;1.52;1.25;;;20.30;63.80;;;;;;5064809;28;45242;-65
2022/06/01 03:22:22;;;;;;;1.60;1.30;;;20.30;65.10;;;;;;5068101;28;45345;-65
2022/06/01 03:24:48;;;;;;;2.13;1.10;;;20.30;64.00;;;;;;5067274;28;47945;-65
2022/06/01 03:27:15;;;;;;;3.25;1.35;;;20.30;63.60;;;;;;5061320;28;45640;-66
2022/06/01 03:29:42;;;;;;;2.88;1.33;;;20.30;63.60;;;;;;5066228;28;45258;-65
2022/06/01 03:32:11;;;;;;;4.30;1.40;;;20.30;63.50;;;;;;5067962;28;45153;-65
2022/06/01 03:34:39;;;;;;;5.07;1.40;;;20.30;63.60;;;;;;5066769;28;46408;-66
2022/06/01 03:37:06;;;;;;;1.92;1.20;;;20.30;63.60;;;;;;5066284;28;45209;-65
2022/06/01 03:39:33;;;;;;;3.38;1.45;;;20.30;63.50;;;;;;5066249;28;46115;-65
2022/06/01 03:42:01;;;;;;;1.77;1.30;;;20.30;63.90;;;;;;5067541;28;45372;-65
2022/06/01 03:47:12;;;;;;;2.63;1.48;;;20.30;63.50;;;;;;5067959;28;45325;-65
2022/06/01 03:49:40;;;;;;;2.08;1.23;;;20.30;63.60;;;;;;5063293;28;45298;-65
2022/06/01 03:52:08;;;;;;;1.52;1.20;;;20.30;63.50;;;;;;5067686;28;45298;-65
2022/06/01 03:54:35;;;;;;;3.28;1.30;;;20.30;63.50;;;;;;5065682;28;48505;-66
2022/06/01 03:57:01;;;;;;;2.38;1.45;;;20.30;63.80;;;;;;5066746;28;45654;-65
2022/06/01 03:59:29;;;;;;;2.63;1.50;;;20.30;64.70;;;;;;5059638;28;45263;-65
2022/06/01 04:01:55;;;;;;;2.08;1.30;;;20.30;63.60;;;;;;5047480;28;45609;-65
2022/06/01 04:04:22;;;;;;;2.10;1.50;;;20.30;63.70;;;;;;5046826;28;45245;-65
2022/06/01 04:06:51;;;;;;;2.00;1.40;;;20.30;64.70;;;;;;5060340;28;45201;-66
2022/06/01 04:09:17;;;;;;;3.72;1.60;;;20.30;63.80;;;;;;5069900;28;45220;-65
2022/06/01 04:11:44;;;;;;;2.42;1.60;;;20.30;63.80;;;;;;5069309;28;45216;-65
2022/06/01 04:14:11;;;;;;;4.43;1.55;;;20.30;63.70;;;;;;5070474;28;47427;-65
2022/06/01 04:16:37;;;;;;;3.28;1.45;;;20.30;63.80;;;;;;5277163;22;45999;-65
2022/06/01 04:19:04;;;;;;;2.67;1.17;;;20.30;63.80;;;;;;5092572;28;44726;-66
2022/06/01 04:21:37;;;;;;;2.47;1.42;;;20.30;63.70;;;;;;5090886;28;44780;-66
2022/06/01 04:24:08;;;;;;;2.55;1.63;;;20.20;63.80;;;;;;5093832;28;45022;-66
2022/06/01 04:26:35;;;;;;;3.15;1.52;;;20.20;63.50;;;;;;5093237;28;44562;-66
2022/06/01 04:29:01;;;;;;;2.35;1.80;;;20.30;63.40;;;;;;5090432;28;44917;-66
2022/06/01 04:31:28;;;;;;;3.42;1.77;;;20.30;63.50;;;;;;5093492;28;45243;-66
2022/06/01 04:33:55;;;;;;;4.45;1.77;;;20.30;63.50;;;;;;5093548;28;44995;-66
2022/06/01 04:36:22;;;;;;;2.58;1.50;;;20.30;63.50;;;;;;5092789;28;44901;-66
2022/06/01 04:38:49;;;;;;;2.40;1.60;;;20.30;63.50;;;;;;5071587;28;44616;-66
2022/06/01 04:41:18;;;;;;;5.57;2.10;;;20.30;63.50;;;;;;5086384;28;44905;-66
2022/06/01 04:43:47;;;;;;;2.90;2.03;;;20.30;63.50;;;;;;5093201;28;46547;-66
2022/06/01 04:46:14;;;;;;;3.40;1.92;;;20.30;63.50;;;;;;5091322;28;44732;-66
2022/06/01 04:48:40;;;;;;;3.40;1.60;;;20.30;63.50;;;;;;5090974;28;44620;-66
2022/06/01 04:51:08;;;;;;;3.35;1.80;;;20.30;63.50;;;;;;5072167;28;44731;-66
2022/06/01 04:53:34;;;;;;;3.33;1.65;;;20.30;63.40;;;;;;5072853;28;45605;-66
2022/06/01 04:56:01;;;;;;;2.88;1.52;;;20.30;63.40;;;;;;5071495;28;44619;-66
2022/06/01 04:58:29;;;;;;;4.18;1.70;;;20.30;63.50;;;;;;5074395;28;45004;-66
2022/06/01 05:00:57;;;;;;;2.00;1.60;;;20.30;63.60;;;;;;5093052;28;44797;-66
2022/06/01 05:03:24;;;;;;;2.17;1.40;;;20.30;63.50;;;;;;5092548;28;47376;-66
2022/06/01 05:05:51;;;;;;;3.13;1.63;;;20.30;63.60;;;;;;5079605;28;44755;-66
2022/06/01 05:08:17;;;;;;;3.50;1.75;;;20.30;64.60;;;;;;5091895;28;44755;-66
2022/06/01 05:10:44;;;;;;;2.13;1.40;;;20.30;63.60;;;;;;5092308;28;44781;-66
2022/06/01 05:13:12;;;;;;;3.88;1.50;;;20.20;63.60;;;;;;5074633;28;44995;-66
2022/06/01 05:15:47;;;;;;;3.13;1.67;;;20.30;63.80;;;;;;5092608;28;44745;-66
2022/06/01 05:18:14;;;;;;;2.75;1.73;;;20.30;63.80;;;;;;5091204;28;44612;-66
2022/06/01 05:20:41;;;;;;;4.10;1.52;;;20.20;63.80;;;;;;5082807;28;45136;-66
2022/06/01 05:23:08;;;;;;;4.07;2.00;;;20.30;63.80;;;;;;5090470;28;46376;-66
2022/06/01 05:25:35;;;;;;;3.75;1.40;;;20.30;63.80;;;;;;5091168;28;44576;-66
2022/06/01 05:28:01;;;;;;;1.42;1.13;;;20.30;63.70;;;;;;5091455;28;44620;-66
2022/06/01 05:30:28;;;;;;;2.42;1.30;;;20.30;63.70;;;;;;5090628;28;44687;-66
2022/06/01 05:32:56;;;;;;;2.78;1.40;;;20.30;63.60;;;;;;5092662;28;46620;-66
2022/06/01 05:35:23;;;;;;;3.45;1.40;;;20.30;63.70;;;;;;5091086;28;45000;-66
2022/06/01 05:37:50;;;;;;;2.38;1.30;;;20.30;63.70;;;;;;5092628;28;44602;-66
2022/06/01 05:40:17;;;;;;;4.47;1.60;;;20.30;63.70;;;;;;5090304;28;45081;-66
2022/06/01 05:42:44;;;;;;;3.40;1.38;;;20.30;63.70;;;;;;5092216;28;46617;-66
2022/06/01 05:45:11;;;;;;;2.58;1.33;;;20.30;63.70;;;;;;5078720;28;45040;-66
2022/06/01 05:47:38;;;;;;;5.03;1.75;;;20.30;63.70;;;;;;5092390;28;44604;-66
2022/06/01 05:50:07;;;;;;;2.85;1.70;;;20.30;63.80;;;;;;5076968;28;44833;-66
2022/06/01 05:52:38;;;;;;;2.78;1.50;;;20.30;63.80;;;;;;5074137;28;46325;-66
2022/06/01 05:55:07;;;;;;;2.90;1.30;;;20.30;63.80;;;;;;5090760;28;44639;-66
2022/06/01 05:57:34;;;;;;;5.03;1.38;;;20.30;63.90;;;;;;5090145;28;44616;-66
2022/06/01 06:00:00;;;;;;;4.43;1.40;;;20.30;64.00;;;;;;5070860;28;44881;-66
2022/06/01 06:02:27;;;;;;;4.63;1.55;;;20.30;63.90;;;;;;5071857;28;46392;-66
2022/06/01 06:04:54;;;;;;;3.47;1.40;;;20.30;63.80;;;;;;5071660;28;44933;-66
2022/06/01 06:07:22;;;;;;;1.50;1.20;;;20.30;63.90;;;;;;5087906;28;44743;-66
2022/06/01 06:09:49;;;;;;;4.93;1.50;;;20.30;64.00;;;;;;5090942;28;44762;-66
2022/06/01 06:12:16;;;;;;;2.42;1.10;;;20.30;64.00;;;;;;5090965;28;46277;-66
2022/06/01 06:14:42;;;;;;;3.60;1.30;;;20.30;63.90;;;;;;5089784;28;44848;-66
2022/06/01 06:17:09;;;;;;;2.38;1.02;;;20.30;63.90;;;;;;5091527;28;44648;-66
2022/06/01 06:19:38;;;;;;;1.50;1.00;;;20.30;63.90;;;;;;5081024;28;45052;-66
2022/06/01 06:22:06;;;;;;;3.28;1.50;;;20.30;63.80;;;;;;5071071;28;46604;-66
2022/06/01 06:24:34;;;;;;;3.20;1.42;;;20.30;63.80;;;;;;5079173;28;44779;-66
2022/06/01 06:27:01;;;;;;;4.57;1.40;;;20.30;63.80;;;;;;5088836;28;44670;-66
2022/06/01 06:29:28;;;;;;;2.88;1.30;;;20.30;63.70;;;;;;5069727;28;44780;-66
2022/06/01 06:31:55;;;;;;;1.92;1.10;;;20.30;64.70;;;;;;5085725;28;46591;-66
2022/06/01 06:34:22;;;;;;;2.08;1.40;;;20.30;63.70;;;;;;5090639;28;44816;-66
2022/06/01 06:36:49;;;;;;;3.30;1.48;;;20.30;63.80;;;;;;5090752;28;44627;-66
2022/06/01 06:39:16;;;;;;;4.28;1.45;;;20.30;63.70;;;;;;5079685;28;44826;-66
2022/06/01 06:41:44;;;;;;;2.55;1.33;;;20.30;63.70;;;;;;5089524;28;45241;-66
2022/06/01 06:44:11;;;;;;;2.38;0.85;;;20.30;63.70;;;;;;5086751;28;44706;-66
2022/06/01 06:46:38;;;;;;;2.55;1.33;;;20.30;63.70;;;;;;5090087;28;44781;-66
2022/06/01 06:49:05;;;;;;;2.63;1.38;;;20.30;63.70;;;;;;5089399;28;44679;-66
2022/06/01 06:51:31;;;;;;;3.75;1.80;;;20.30;63.90;;;;;;5091281;28;46288;-66
2022/06/01 06:53:58;;;;;;;2.60;1.27;;;20.30;63.90;;;;;;5089812;28;44820;-66
2022/06/01 06:56:27;;;;;;;2.97;1.30;;;20.30;63.80;;;;;;5082485;28;45020;-66
2022/06/01 06:58:55;;;;;;;3.03;1.25;;;20.30;63.90;;;;;;5068194;28;45019;-66
2022/06/01 07:01:22;;;;;;;3.28;1.30;;;20.30;63.90;;;;;;5072424;28;45345;-66
2022/06/01 07:03:48;;;;;;;2.58;1.23;;;20.30;64.00;;;;;;5091212;28;44589;-66
2022/06/01 07:06:17;;;;;;;4.00;1.45;;;20.30;64.00;;;;;;5088715;28;44751;-66
2022/06/01 07:08:46;;;;;;;2.15;1.20;;;20.30;64.00;;;;;;5090269;28;44845;-66
2022/06/01 07:11:15;;;;;;;2.97;1.20;;;20.30;64.00;;;;;;5083166;28;45412;-66
2022/06/01 07:13:42;;;;;;;1.55;1.25;;;20.30;64.10;;;;;;5070567;28;45029;-66
2022/06/01 07:16:12;;;;;;;4.50;1.50;;;20.30;64.10;;;;;;5074466;28;44664;-66
2022/06/01 07:18:41;;;;;;;2.85;1.13;;;20.30;65.10;;;;;;5089813;28;44801;-66
2022/06/01 07:21:09;;;;;;;2.53;1.23;;;20.30;64.10;;;;;;5089604;28;46620;-66
2022/06/01 07:23:37;;;;;;;2.00;1.42;;;20.30;64.00;;;;;;5090654;28;44760;-66
2022/06/01 07:26:04;;;;;;;2.72;1.40;;;20.30;64.00;;;;;;5088983;28;44640;-66
2022/06/01 07:28:31;;;;;;;3.13;1.33;;;20.30;63.90;;;;;;5084430;28;44961;-66
2022/06/01 07:30:58;;;;;;;2.83;1.15;;;20.30;63.90;;;;;;5090464;28;46343;-66
2022/06/01 07:33:28;;;;;;;1.95;1.10;;;20.30;64.00;;;;;;5090718;28;44639;-66
2022/06/01 07:35:55;;;;;;;2.42;1.25;;;20.30;64.00;;;;;;5080282;28;44557;-66
2022/06/01 07:43:55;;;;;;;5.25;1.45;;;20.30;63.90;;;;;;5077091;28;44588;-66
2022/06/01 07:46:22;;;;;;;3.47;1.27;;;20.30;63.90;;;;;;5070220;28;44681;-66
2022/06/01 07:48:50;;;;;;;1.48;1.20;;;20.30;64.00;;;;;;5087141;28;44940;-66
2022/06/01 07:51:18;;;;;;;2.45;1.20;;;20.30;64.10;;;;;;5090538;28;46580;-66
2022/06/01 07:53:45;;;;;;;8.25;1.10;;;20.40;64.20;;;;;;5088993;28;45178;-66
2022/06/01 07:56:11;;;;;;;4.97;0.88;;;20.30;64.20;;;;;;5087931;28;45052;-66
2022/06/01 07:58:38;;;;;;;3.08;1.27;;;20.40;64.40;;;;;;5089710;28;44711;-66
2022/06/01 08:01:05;;;;;;;3.15;0.93;;;20.30;64.30;;;;;;5088076;28;45469;-66
2022/06/01 08:03:32;;;;;;;3.33;1.30;;;20.30;64.30;;;;;;5090019;28;44933;-66
2022/06/01 08:06:01;;;;;;;2.80;1.17;;;20.30;64.20;;;;;;5086058;28;45089;-66
2022/06/01 08:08:27;;;;;;;1.30;0.85;;;20.30;65.20;;;;;;5089248;28;44667;-66
2022/06/01 08:10:54;;;;;;;3.58;0.95;;;20.30;64.20;;;;;;5087860;28;46728;-66
2022/06/01 08:13:20;;;;;;;3.28;1.08;;;20.30;64.30;;;;;;5088454;28;44656;-66
2022/06/01 08:15:49;;;;;;;2.88;0.90;;;20.30;64.30;;;;;;5090012;28;44623;-66
2022/06/01 08:18:18;;;;;;;1.75;1.00;;;20.30;64.30;;;;;;5089163;28;44683;-66
2022/06/01 08:20:46;;;;;;;2.45;0.80;;;20.30;64.20;;;;;;5088683;28;47195;-66
2022/06/01 08:23:15;;;;;;;3.08;1.02;;;20.30;64.10;;;;;;5089972;28;44615;-66
2022/06/01 08:25:43;;;;;;;1.70;1.05;;;20.40;64.10;;;;;;5088392;28;44762;-66
2022/06/01 08:28:10;;;;;;;2.72;0.90;;;20.40;64.10;;;;;;5088918;28;44734;-66
2022/06/01 08:30:39;;;;;;;2.20;1.10;;;20.40;64.10;;;;;;5088808;28;45596;-66
2022/06/01 08:33:07;;;;;;;2.08;1.10;;;20.40;64.10;;;;;;5090234;28;44744;-66
2022/06/01 08:35:36;;;;;;;4.05;0.90;;;20.40;64.10;;;;;;5087510;28;44710;-66
2022/06/01 08:38:04;;;;;;;1.75;0.90;;;20.40;64.10;;;;;;5090224;28;44835;-66
2022/06/01 08:40:35;;;;;;;1.98;1.08;;;20.40;64.00;;;;;;5085796;28;45222;-66
2022/06/01 08:43:05;;;;;;;2.03;1.15;;;20.40;64.00;;;;;;5089836;28;44567;-66
2022/06/01 08:45:32;;;;;;;1.50;0.90;;;20.40;64.10;;;;;;5086875;28;45028;-66
2022/06/01 08:47:59;;;;;;;1.73;1.17;;;20.40;64.20;;;;;;5087437;28;44805;-66
2022/06/01 08:50:33;;;;;;;2.17;1.13;;;20.40;64.20;;;;;;5087750;28;46625;-66
2022/06/01 08:53:03;;;;;;;2.58;1.10;;;20.40;64.20;;;;;;5089510;28;44796;-66
2022/06/01 08:55:42;;;;;;;2.15;1.25;;;20.30;64.20;;;;;;5091766;28;45094;-66
2022/06/01 08:58:14;;;;;;;2.75;1.08;;;20.30;64.00;;;;;;5092824;28;44738;-66
2022/06/01 09:00:46;;;;;;;5.15;1.30;;;20.30;64.10;;;;;;5072645;28;44990;-66
2022/06/01 09:03:20;;;;;;;4.20;1.08;;;20.40;64.20;;;;;;5076392;28;44672;-66
2022/06/01 09:05:52;;;;;;;2.72;1.20;;;20.30;64.10;;;;;;5075649;28;44640;-66
2022/06/01 09:08:29;;;;;;;2.25;1.10;;;20.40;64.20;;;;;;5090532;28;44780;-66
2022/06/01 09:11:05;;;;;;;3.55;1.23;;;20.30;64.20;;;;;;5089870;28;45219;-66
2022/06/01 09:13:39;;;;;;;2.17;0.95;;;20.30;64.20;;;;;;5070653;28;44885;-66
2022/06/01 09:16:10;;;;;;;2.58;0.88;;;20.30;64.20;;;;;;5090402;28;44635;-66
2022/06/01 09:18:42;;;;;;;2.22;1.00;;;20.40;64.20;;;;;;5090847;28;44813;-66
2022/06/01 09:24:06;;;;;;;1.50;0.95;;;20.40;63.80;;;;;;5089514;28;44837;-66
2022/06/01 09:26:35;;;;;;;1.75;0.90;;;20.40;63.80;;;;;;5092824;28;44614;-66
2022/06/01 09:29:03;;;;;;;0.93;0.77;;;20.40;63.70;;;;;;5088823;28;45200;-66
2022/06/01 09:31:36;;;;;;;2.75;0.90;;;20.40;63.60;;;;;;5092377;28;45422;-66
2022/06/01 09:34:26;;;;;;;3.30;1.00;;;20.40;63.60;;;;;;5091712;28;44913;-66
2022/06/01 09:37:05;;;;;;;1.63;0.75;;;20.40;63.50;;;;;;5089331;28;44583;-66
2022/06/01 09:39:32;;;;;;;2.90;0.90;;;20.40;63.60;;;;;;5091816;28;44687;-66
2022/06/01 09:42:14;;;;;;;1.77;0.77;;;20.40;63.50;;;;;;5090233;28;46572;-66
2022/06/01 09:44:45;;;;;;;2.50;1.00;;;20.40;63.70;;;;;;5090210;28;44759;-66
2022/06/01 09:47:28;;;;;;;2.35;0.80;;;20.40;63.80;;;;;;5092543;28;44850;-66
2022/06/01 09:49:57;;;;;;;1.35;0.80;;;20.40;63.80;;;;;;5089803;28;44862;-66
2022/06/01 09:52:30;;;;;;;0.98;0.70;;;20.40;63.90;;;;;;5092162;28;46592;-66
2022/06/01 09:55:06;;;;;;;1.63;0.75;;;20.40;63.90;;;;;;5090242;28;44706;-66
2022/06/01 09:57:38;;;;;;;2.67;1.10;;;20.40;63.90;;;;;;5088319;28;44639;-66
2022/06/01 10:06:13;;;;;;;1.65;0.80;;;20.40;63.80;;;;;;5090335;28;44951;-66
2022/06/01 10:08:43;;;;;;;1.25;0.70;;;20.40;63.80;;;;;;5089334;28;45136;-66
2022/06/01 10:11:28;;;;;;;3.13;0.93;;;20.40;63.60;;;;;;5086480;28;45165;-66
2022/06/01 10:14:15;;;;;;;1.83;0.80;;;20.40;63.60;;;;;;5091503;28;46450;-66
2022/06/01 10:16:57;;;;;;;1.48;0.90;;;20.40;63.50;;;;;;5085532;28;44889;-66
2022/06/01 10:19:29;;;;;;;1.00;0.73;;;20.40;63.50;;;;;;5088171;28;44624;-66
2022/06/01 10:22:00;;;;;;;1.08;0.50;;;20.40;63.30;;;;;;5088948;28;44706;-66
2022/06/01 10:24:32;;;;;;;0.90;0.60;;;20.40;63.30;;;;;;5091650;28;45229;-66
2022/06/01 10:27:00;;;;;;;1.38;0.70;;;20.40;63.20;;;;;;5090724;28;44771;-66
2022/06/01 10:29:33;;;;;;;1.75;0.77;;;20.40;63.10;;;;;;5078937;28;45200;-66
2022/06/01 10:32:05;;;;;;;1.05;0.60;;;20.40;63.10;;;;;;5092117;28;44707;-66
2022/06/01 10:34:36;;;;;;;1.67;0.80;;;20.50;63.10;;;;;;5091277;28;46720;-66
2022/06/01 10:37:12;;;;;;;2.28;0.70;;;20.40;62.90;;;;;;5089479;28;44912;-66
2022/06/01 10:39:44;;;;;;;1.17;0.65;;;20.50;63.20;;;;;;5070485;28;44615;-66
2022/06/01 10:42:17;;;;;;;1.25;0.60;;;20.40;63.10;;;;;;5071500;28;44802;-66
2022/06/01 10:44:53;;;;;;;0.88;0.73;;;20.40;63.10;;;;;;5085626;28;47652;-66
2022/06/01 10:47:33;;;;;;;1.27;0.80;;;20.40;63.00;;;;;;5074391;28;44596;-66
2022/06/01 10:50:06;;;;;;;1.65;0.55;;;20.40;63.20;;;;;;5082641;28;45026;-66
2022/06/01 10:52:35;;;;;;;0.88;0.50;;;20.40;63.10;;;;;;5088459;28;44783;-66
2022/06/01 10:55:11;;;;;;;1.80;0.50;;;20.40;63.20;;;;;;5088926;28;46321;-66
2022/06/01 10:57:40;;;;;;;1.45;0.45;;;20.40;63.20;;;;;;5086778;28;45219;-66
2022/06/01 11:00:11;;;;;;;2.10;0.52;;;20.40;63.20;;;;;;5090168;28;44648;-66
2022/06/01 11:03:06;;;;;;;2.05;0.77;;;20.40;63.30;;;;;;5091343;28;44725;-66
2022/06/01 11:05:41;;;;;;;1.00;0.50;;;20.40;63.50;;;;;;5089499;28;46317;-66
2022/06/01 11:08:34;;;;;;;1.42;0.73;;;20.40;63.60;;;;;;5090598;28;44795;-66
2022/06/01 11:11:11;;;;;;;2.15;0.50;;;20.40;63.30;;;;;;5082638;28;44702;-66
2022/06/01 11:13:48;;;;;;;1.40;0.40;;;20.40;63.10;;;;;;5070043;28;44731;-66
2022/06/01 11:16:27;;;;;;;0.45;0.40;;;20.40;63.00;;;;;;5069019;28;46905;-66
2022/06/01 11:19:10;;;;;;;3.15;0.70;;;20.40;63.00;;;;;;5069682;28;44862;-66
2022/06/01 11:21:44;;;;;;;4.68;0.95;;;20.40;62.80;;;;;;5087002;28;44741;-66
2022/06/01 11:24:43;;;;;;;2.20;0.70;;;20.50;62.80;;;;;;5090614;28;44607;-66
2022/06/01 11:27:23;;;;;;;0.70;0.38;;;20.40;62.60;;;;;;5071791;28;46676;-66
2022/06/01 11:30:04;;;;;;;2.15;0.77;;;20.40;62.60;;;;;;5089928;28;44599;-66
2022/06/01 11:32:39;;;;;;;1.20;0.60;;;20.40;62.60;;;;;;5091065;28;44899;-66
2022/06/01 11:35:13;;;;;;;2.60;0.73;;;20.40;62.60;;;;;;5087844;28;44917;-66
2022/06/01 11:37:48;;;;;;;3.75;0.70;;;20.40;62.50;;;;;;5089661;28;45002;-66
2022/06/01 11:40:19;;;;;;;4.53;0.70;;;20.40;62.50;;;;;;5088554;28;44644;-66
2022/06/01 11:42:55;;;;;;;2.83;0.70;;;20.40;62.60;;;;;;5090796;28;44772;-67
2022/06/01 11:45:27;;;;;;;2.30;0.50;;;20.40;62.60;;;;;;5090383;28;44779;-66
2022/06/01 11:48:02;;;;;;;2.97;0.85;;;20.40;62.60;;;;;;5080567;28;46578;-66
2022/06/01 11:50:53;;;;;;;0.90;0.70;;;20.40;62.50;;;;;;5088735;28;44563;-66
2022/06/01 11:53:23;;;;;;;1.50;0.50;;;20.40;62.60;;;;;;5089040;28;44802;-66
2022/06/01 11:55:50;;;;;;;1.30;0.63;;;20.40;62.40;;;;;;5088611;28;44711;-66
2022/06/01 11:58:42;;;;;;;3.58;1.08;;;20.40;62.40;;;;;;5087147;28;46388;-66
2022/06/01 12:01:14;;;;;;;1.30;0.50;;;20.40;62.30;;;;;;5090390;28;44614;-66
2022/06/01 12:04:10;;;;;;;1.73;0.70;;;20.40;62.40;;;;;;5090575;28;44609;-66
2022/06/01 12:06:44;;;;;;;3.13;0.70;;;20.40;62.30;;;;;;5083954;28;44783;-66
2022/06/01 12:09:32;;;;;;;2.85;0.82;;;20.40;62.20;;;;;;5088468;28;45400;-66
2022/06/01 12:12:01;;;;;;;1.60;0.80;;;20.40;62.10;;;;;;5067247;28;44701;-66
2022/06/01 12:14:32;;;;;;;0.80;0.50;;;20.40;62.10;;;;;;5070161;28;44593;-66
2022/06/01 12:17:29;;;;;;;0.85;0.55;;;20.50;62.10;;;;;;5069302;28;44709;-66
2022/06/01 12:20:41;;;;;;;0.75;0.40;;;20.40;62.10;;;;;;5084826;28;46276;-66
2022/06/01 12:29:52;;;;;;;1.20;0.60;;;20.40;61.90;;;;;;5089576;28;44679;-66
2022/06/01 12:32:19;;;;;;;1.15;0.50;;;20.50;62.00;;;;;;5072704;28;46582;-66
2022/06/01 12:34:53;;;;;;;0.95;0.50;;;20.40;62.00;;;;;;5073361;28;45009;-66
2022/06/01 12:37:25;;;;;;;1.48;0.43;;;20.40;62.00;;;;;;5093512;28;44779;-66
2022/06/01 12:39:56;;;;;;;2.05;0.50;;;20.40;62.10;;;;;;5091113;28;44769;-66
2022/06/01 12:42:30;;;;;;;0.80;0.50;;;20.40;62.20;;;;;;5093290;28;45477;-66
2022/06/01 12:45:05;;;;;;;1.00;0.60;;;20.40;62.30;;;;;;5092143;28;44941;-66
2022/06/01 12:47:34;;;;;;;0.95;0.45;;;20.40;62.40;;;;;;5091827;28;44877;-66
2022/06/01 12:50:11;;;;;;;1.73;0.70;;;20.40;62.40;;;;;;5091857;28;44661;-66
2022/06/01 12:52:40;;;;;;;1.13;0.60;;;20.40;62.50;;;;;;5093229;28;46359;-66
2022/06/01 12:55:10;;;;;;;1.55;0.73;;;20.40;62.60;;;;;;5089951;28;44660;-66
2022/06/01 12:57:41;;;;;;;5.00;0.63;;;20.40;62.60;;;;;;5091055;28;44624;-66
2022/06/01 13:00:14;;;;;;;0.30;0.30;;;20.40;62.70;;;;;;5090746;28;44886;-66
2022/06/01 13:02:42;;;;;;;3.65;0.65;;;20.40;62.90;;;;;;5093017;28;47174;-66
2022/06/01 13:05:12;;;;;;;0.95;0.50;;;20.30;62.90;;;;;;5092899;28;44544;-66
2022/06/01 13:07:45;;;;;;;0.55;0.52;;;20.40;63.10;;;;;;5081129;28;44771;-66
2022/06/01 13:10:14;;;;;;;1.33;0.80;;;20.40;63.30;;;;;;5072212;28;44616;-66
2022/06/01 13:12:41;;;;;;;1.17;1.05;;;20.40;63.60;;;;;;5088400;28;45209;-66
2022/06/01 13:15:11;;;;;;;0.80;0.70;;;20.40;63.60;;;;;;5092602;28;44718;-66
2022/06/01 13:17:50;;;;;;;1.30;1.10;;;20.40;63.80;;;;;;5091356;28;44890;-66
2022/06/01 13:20:17;;;;;;;0.82;0.82;;;20.40;64.00;;;;;;5092092;28;44694;-66
2022/06/01 13:22:50;;;;;;;1.58;1.05;;;20.40;64.10;;;;;;5091450;28;46385;-66
2022/06/01 13:25:23;;;;;;;0.60;0.60;;;20.40;64.20;;;;;;5090874;28;45073;-66
2022/06/01 13:27:50;;;;;;;3.58;0.93;;;20.40;64.50;;;;;;5091445;28;45000;-66
2022/06/01 13:30:18;;;;;;;2.08;1.10;;;20.40;64.40;;;;;;5091781;28;44920;-66
2022/06/01 13:32:50;;;;;;;1.40;1.30;;;20.40;64.70;;;;;;5091620;28;46330;-66
2022/06/01 13:35:35;;;;;;;3.60;1.10;;;20.40;64.60;;;;;;5092090;28;44825;-66